createdAt,value
2019-02-11T00:03:02.251Z,99215.11
2019-02-11T00:06:06.308Z,99221.41
2019-02-11T00:09:10.340Z,99236.97
2019-02-11T00:12:14.400Z,99239.83
2019-02-11T00:15:18.469Z,99251.15
2019-02-11T00:18:22.495Z,99267.73
2019-02-11T00:21:26.550Z,99270.94
2019-02-11T00:24:30.581Z,99277.69
2019-02-11T00:27:34.637Z,99293.71
2019-02-11T00:30:38.688Z,99302.44
2019-02-11T00:33:42.777Z,99308.53
2019-02-11T00:36:46.780Z,99312.68
2019-02-11T00:39:50.811Z,99315.91
2019-02-11T00:42:54.863Z,99327.58
2019-02-11T00:45:58.916Z,99333.08
2019-02-11T00:49:02.947Z,99336.96
2019-02-11T00:52:07.001Z,99339.38
2019-02-11T00:55:11.031Z,99343.39
2019-02-11T00:58:15.078Z,99350.69
2019-02-11T01:01:19.138Z,99357.05
2019-02-11T01:04:23.166Z,99356.95
2019-02-11T01:07:27.218Z,99372.98
2019-02-11T01:10:31.252Z,99379.94
2019-02-11T01:13:35.311Z,99381.23
2019-02-11T01:16:39.363Z,99389.30
2019-02-11T01:19:43.390Z,99396.09
2019-02-11T01:22:47.447Z,99403.69
2019-02-11T01:25:51.497Z,99402.86
2019-02-11T01:28:55.523Z,99405.45
2019-02-11T01:31:59.574Z,99420.31
2019-02-11T01:35:04.539Z,99427.48
2019-02-11T01:38:08.593Z,99431.75
2019-02-11T01:41:12.650Z,99443.06
2019-02-11T01:44:16.674Z,99450.02
2019-02-11T01:47:20.727Z,99459.44
2019-02-11T01:50:25.030Z,99461.69
2019-02-11T01:53:29.078Z,99461.63
2019-02-11T01:56:33.131Z,99465.03
2019-02-11T01:59:37.159Z,99473.16
2019-02-11T02:02:41.219Z,99479.77
2019-02-11T02:05:45.252Z,99484.21
2019-02-11T02:08:49.299Z,99498.00
2019-02-11T02:11:53.521Z,99508.14
2019-02-11T02:14:57.556Z,99500.02
2019-02-11T02:18:01.610Z,99507.19
2019-02-11T02:21:05.668Z,99517.81
2019-02-11T02:24:09.687Z,99522.05
2019-02-11T02:27:13.757Z,99530.17
2019-02-11T02:30:17.786Z,99525.94
2019-02-11T02:33:21.864Z,99529.70
2019-02-11T02:36:25.895Z,99534.06
2019-02-11T02:39:29.935Z,99531.34
2019-02-11T02:42:33.985Z,99541.36
2019-02-11T02:45:38.056Z,99538.55
2019-02-11T02:48:42.113Z,99550.20
2019-02-11T02:51:46.199Z,99549.73
2019-02-11T02:54:50.236Z,99553.72
2019-02-11T02:57:54.286Z,99563.26
2019-02-11T03:00:58.316Z,99563.99
2019-02-11T03:04:02.369Z,99574.45
2019-02-11T03:07:06.418Z,99577.86
2019-02-11T03:10:11.216Z,99584.34
2019-02-11T03:13:15.268Z,99590.94
2019-02-11T03:16:19.330Z,99593.06
2019-02-11T03:19:23.355Z,99597.07
2019-02-11T03:22:27.411Z,99597.89
2019-02-11T03:25:31.435Z,99603.67
2019-02-11T03:28:35.493Z,99603.83
2019-02-11T03:31:39.546Z,99611.72
2019-02-11T03:34:43.575Z,99621.14
2019-02-11T03:37:47.633Z,99629.86
2019-02-11T03:40:51.655Z,99637.28
2019-02-11T03:43:57.556Z,99641.05
2019-02-11T03:47:01.467Z,99652.83
2019-02-11T03:50:07.834Z,99646.00
2019-02-11T03:53:11.883Z,99653.77
2019-02-11T03:56:15.925Z,99654.36
2019-02-11T03:59:19.967Z,99658.95
2019-02-11T04:02:24.024Z,99659.55
2019-02-11T04:05:28.056Z,99662.97
2019-02-11T04:08:32.111Z,99671.91
2019-02-11T04:11:36.172Z,99686.05
2019-02-11T04:14:40.189Z,99690.91
2019-02-11T04:17:44.239Z,99693.16
2019-02-11T04:20:49.084Z,99716.23
2019-02-11T04:23:53.305Z,99724.95
2019-02-11T04:26:57.357Z,99724.13
2019-02-11T04:30:01.392Z,99730.38
2019-02-11T04:33:05.448Z,99726.22
2019-02-11T04:36:09.477Z,99742.23
2019-02-11T04:39:13.533Z,99749.51
2019-02-11T04:42:17.585Z,99746.12
2019-02-11T04:45:21.615Z,99751.50
2019-02-11T04:48:25.674Z,99759.59
2019-02-11T04:51:29.697Z,99765.57
2019-02-11T04:54:33.748Z,99772.99
2019-02-11T04:57:37.808Z,99772.75
2019-02-11T05:00:41.926Z,99777.44
2019-02-11T05:03:45.982Z,99778.14
2019-02-11T05:06:50.036Z,99796.17
2019-02-11T05:09:54.069Z,99794.87
2019-02-11T05:12:58.119Z,99808.20
2019-02-11T05:16:02.152Z,99807.25
2019-02-11T05:19:06.203Z,99810.20
2019-02-11T05:22:10.261Z,99815.27
2019-02-11T05:25:14.309Z,99819.28
2019-02-11T05:28:18.355Z,99825.77
2019-02-11T05:31:22.387Z,99824.82
2019-02-11T05:34:26.439Z,99837.91
2019-02-11T05:37:30.498Z,99848.98
2019-02-11T05:40:34.532Z,99847.34
2019-02-11T05:43:38.588Z,99854.53
2019-02-11T05:46:42.615Z,99859.23
2019-02-11T05:49:46.870Z,99862.54
2019-02-11T05:52:50.902Z,99871.03
2019-02-11T05:55:54.958Z,99877.98
2019-02-11T05:58:59.023Z,99895.78
2019-02-11T06:02:03.043Z,99902.03
2019-02-11T06:05:07.766Z,99909.92
2019-02-11T06:08:11.824Z,99916.67
2019-02-11T06:11:15.853Z,99920.56
2019-02-11T06:14:19.906Z,99927.99
2019-02-11T06:17:23.937Z,99933.77
2019-02-11T06:20:27.992Z,99939.42
2019-02-11T06:23:32.048Z,99950.27
2019-02-11T06:26:36.079Z,99955.09
2019-02-11T06:29:40.147Z,99969.47
2019-02-11T06:32:44.200Z,99978.19
2019-02-11T06:35:48.242Z,99987.88
2019-02-11T06:38:52.294Z,99998.36
2019-02-11T06:41:56.331Z,100005.20
2019-02-11T06:45:00.392Z,100009.20
2019-02-11T06:48:04.449Z,100018.28
2019-02-11T06:51:08.481Z,100020.16
2019-02-11T06:54:12.545Z,100034.42
2019-02-11T06:57:16.580Z,100034.53
2019-02-11T07:00:20.643Z,100046.78
2019-02-11T07:03:24.704Z,100052.80
2019-02-11T07:06:28.737Z,100063.05
2019-02-11T07:09:32.796Z,100064.46
2019-02-11T07:12:36.832Z,100073.53
2019-02-11T07:15:40.888Z,100081.45
2019-02-11T07:18:44.946Z,100085.34
2019-02-11T07:21:48.979Z,100094.75
2019-02-11T07:24:53.037Z,100101.01
2019-02-11T07:27:57.100Z,100109.97
2019-02-11T07:31:01.136Z,100124.70
2019-02-11T07:34:05.185Z,100136.70
2019-02-11T07:37:09.229Z,100136.84
2019-02-11T07:40:13.285Z,100144.97
2019-02-11T07:43:31.005Z,100151.45
2019-02-11T07:46:36.676Z,100152.39
2019-02-11T07:49:40.732Z,100152.50
2019-02-11T07:52:44.768Z,100161.00
2019-02-11T07:55:48.825Z,100169.93
2019-02-11T07:58:52.884Z,100178.68
2019-02-11T08:01:56.921Z,100183.50
2019-02-11T08:05:00.979Z,100185.48
2019-02-11T08:08:05.037Z,100198.59
2019-02-11T08:11:09.077Z,100205.08
2019-02-11T08:14:13.131Z,100214.97
2019-02-11T08:17:17.169Z,100210.26
2019-02-11T08:20:21.234Z,100215.66
2019-02-11T08:23:25.281Z,100231.22
2019-02-11T08:26:29.312Z,100231.58
2019-02-11T08:29:33.369Z,100243.13
2019-02-11T08:32:37.407Z,100242.89
2019-02-11T08:35:41.465Z,100258.09
2019-02-11T08:38:45.527Z,100270.36
2019-02-11T08:41:49.563Z,100269.75
2019-02-11T08:44:53.623Z,100277.53
2019-02-11T08:47:57.657Z,100284.02
2019-02-11T08:51:01.713Z,100285.67
2019-02-11T08:54:05.770Z,100297.45
2019-02-11T08:57:09.809Z,100303.92
2019-02-11T09:00:13.876Z,100309.47
2019-02-11T09:03:17.935Z,100315.13
2019-02-11T09:06:21.970Z,100326.47
2019-02-11T09:09:26.034Z,100342.35
2019-02-11T09:12:30.069Z,100352.72
2019-02-11T09:15:34.125Z,100355.78
2019-02-11T09:18:38.184Z,100365.36
2019-02-11T09:21:42.219Z,100385.27
2019-02-11T09:24:46.276Z,100379.72
2019-02-11T09:27:50.315Z,100383.71
2019-02-11T09:30:54.370Z,100393.72
2019-02-11T09:33:58.426Z,100405.02
2019-02-11T09:37:02.461Z,100415.86
2019-02-11T09:40:09.718Z,100416.33
2019-02-11T09:43:13.753Z,100419.02
2019-02-11T09:46:18.180Z,100439.30
2019-02-11T09:49:22.239Z,100445.41
2019-02-11T09:52:26.273Z,100451.20
2019-02-11T09:55:32.570Z,100452.49
2019-02-11T09:58:38.115Z,100456.02
2019-02-11T10:01:42.250Z,100473.33
2019-02-11T10:04:46.311Z,100474.70
2019-02-11T10:07:50.348Z,100484.70
2019-02-11T10:10:54.408Z,100501.48
2019-02-11T10:13:58.463Z,100512.69
2019-02-11T10:17:02.971Z,100524.34
2019-02-11T10:20:10.289Z,100533.95
2019-02-11T10:23:14.327Z,100536.91
2019-02-11T10:26:18.381Z,100543.59
2019-02-11T10:29:22.436Z,100552.89
2019-02-11T10:32:26.472Z,100560.30
2019-02-11T10:35:30.528Z,100567.98
2019-02-11T10:38:36.594Z,100579.01
2019-02-11T10:41:40.321Z,100587.34
2019-02-11T10:44:44.386Z,100586.78
2019-02-11T10:47:48.784Z,100594.19
2019-02-11T10:50:52.840Z,100611.50
2019-02-11T10:53:56.897Z,100611.59
2019-02-11T10:57:00.931Z,100626.23
2019-02-11T11:00:08.289Z,100630.58
2019-02-11T11:03:12.324Z,100638.81
2019-02-11T11:06:16.387Z,100651.41
2019-02-11T11:09:20.508Z,100660.14
2019-02-11T11:12:24.545Z,100666.40
2019-02-11T11:15:29.037Z,100670.52
2019-02-11T11:18:33.216Z,100674.73
2019-02-11T11:21:37.302Z,100676.63
2019-02-11T11:24:41.360Z,100679.67
2019-02-11T11:27:45.396Z,100685.05
2019-02-11T11:30:49.452Z,100688.11
2019-02-11T11:33:53.489Z,100695.23
2019-02-11T11:36:57.548Z,100698.00
2019-02-11T11:40:01.619Z,100716.14
2019-02-11T11:43:05.692Z,100725.03
2019-02-11T11:46:09.747Z,100731.33
2019-02-11T11:49:13.805Z,100740.03
2019-02-11T11:52:17.847Z,100744.75
2019-02-11T11:55:23.211Z,100749.94
2019-02-11T11:58:27.591Z,100761.23
2019-02-11T12:01:31.789Z,100767.33
2019-02-11T12:04:35.846Z,100768.29
2019-02-11T12:07:39.919Z,100778.66
2019-02-11T12:10:43.941Z,100780.88
2019-02-11T12:13:48.096Z,100788.44
2019-02-11T12:16:57.090Z,100808.46
2019-02-11T12:19:57.860Z,100810.22
2019-02-11T12:23:02.864Z,100815.86
2019-02-11T12:26:06.916Z,100828.62
2019-02-11T12:29:10.971Z,100837.52
2019-02-11T12:32:15.035Z,100832.89
2019-02-11T12:35:19.083Z,100837.61
2019-02-11T12:38:23.123Z,100838.53
2019-02-11T12:41:27.208Z,100856.03
2019-02-11T12:44:31.247Z,100858.34
2019-02-11T12:47:35.285Z,100867.41
2019-02-11T12:50:39.357Z,100876.95
2019-02-11T12:53:43.398Z,100871.22
2019-02-11T12:56:47.459Z,100878.79
2019-02-11T12:59:51.508Z,100887.86
2019-02-11T13:02:55.568Z,100893.59
2019-02-11T13:05:59.611Z,100899.72
2019-02-11T13:09:04.683Z,100904.16
2019-02-11T13:12:08.750Z,100917.20
2019-02-11T13:15:41.398Z,100930.53
2019-02-11T13:18:22.380Z,100947.09
2019-02-11T13:21:26.708Z,100953.02
2019-02-11T13:24:30.751Z,100963.39
2019-02-11T13:27:34.810Z,100966.73
2019-02-11T13:30:38.868Z,100976.52
2019-02-11T13:33:42.909Z,100976.17
2019-02-11T13:36:46.964Z,100984.12
2019-02-11T13:39:51.025Z,100997.45
2019-02-11T13:42:55.059Z,101000.13
2019-02-11T13:45:59.131Z,100998.38
2019-02-11T13:49:03.174Z,101017.05
2019-02-11T13:52:07.226Z,101022.53
2019-02-11T13:55:11.315Z,101036.41
2019-02-11T13:58:15.326Z,101043.80
2019-02-11T14:01:19.376Z,101048.69
2019-02-11T14:04:23.424Z,101067.58
2019-02-11T14:07:27.481Z,101065.91
2019-02-11T14:10:31.582Z,101073.30
2019-02-11T14:13:35.590Z,101089.77
2019-02-11T14:16:39.641Z,101092.94
2019-02-11T14:19:43.689Z,101100.52
2019-02-11T14:22:47.735Z,101114.39
2019-02-11T14:25:51.786Z,101110.70
2019-02-11T14:28:55.827Z,101127.53
2019-02-11T14:31:59.989Z,101127.53
2019-02-11T14:35:05.246Z,101131.05
2019-02-11T14:38:09.275Z,101143.62
2019-02-11T14:41:13.451Z,101151.77
2019-02-11T14:44:17.474Z,101151.77
2019-02-11T14:47:21.581Z,101155.66
2019-02-11T14:50:25.694Z,101166.21
2019-02-11T14:53:29.728Z,101174.95
2019-02-11T14:56:33.813Z,101183.13
2019-02-11T14:59:37.820Z,101193.44
2019-02-11T15:02:41.880Z,101193.37
2019-02-11T15:05:45.939Z,101201.17
2019-02-11T15:08:49.981Z,101210.49
2019-02-11T15:11:54.041Z,101211.42
2019-02-11T15:14:58.082Z,101223.84
2019-02-11T15:18:02.137Z,101231.09
2019-02-11T15:21:06.225Z,101240.80
2019-02-11T15:24:10.265Z,101245.91
2019-02-11T15:27:17.183Z,101243.31
2019-02-11T15:30:20.453Z,101257.95
2019-02-11T15:33:24.490Z,101259.72
2019-02-11T15:36:28.550Z,101262.77
2019-02-11T15:39:32.587Z,101274.27
2019-02-11T15:42:36.651Z,101268.70
2019-02-11T15:45:40.710Z,101276.87
2019-02-11T15:48:44.744Z,101296.70
2019-02-11T15:51:48.975Z,101297.62
2019-02-11T15:54:53.014Z,101311.34
2019-02-11T15:57:57.069Z,101315.23
2019-02-11T16:01:01.125Z,101319.93
2019-02-11T16:04:05.163Z,101338.01
2019-02-11T16:07:09.216Z,101346.36
2019-02-11T16:10:18.185Z,101359.88
2019-02-11T16:13:22.240Z,101365.63
2019-02-11T16:16:26.301Z,101385.16
2019-02-11T16:19:30.908Z,101398.31
2019-02-11T16:22:34.974Z,101409.41
2019-02-11T16:25:39.033Z,101410.07
2019-02-11T16:28:43.068Z,101421.09
2019-02-11T16:31:47.141Z,101447.94
2019-02-11T16:34:51.190Z,101471.86
2019-02-11T16:37:55.249Z,101474.68
2019-02-11T16:40:59.310Z,101484.22
2019-02-11T16:44:03.346Z,101490.66
2019-02-11T16:47:26.130Z,101498.72
2019-02-11T16:50:31.125Z,101514.06
2019-02-11T16:53:35.182Z,101497.65
2019-02-11T16:56:39.245Z,101509.58
2019-02-11T16:59:43.277Z,101529.52
2019-02-11T17:02:47.336Z,101542.22
2019-02-11T17:06:05.325Z,101551.61
2019-02-11T17:09:09.366Z,101565.55
2019-02-11T17:12:17.417Z,101570.99
2019-02-11T17:15:22.636Z,101585.39
2019-02-11T17:18:38.672Z,101599.52
2019-02-11T17:21:42.730Z,101590.34
2019-02-11T17:24:46.930Z,101608.25
2019-02-11T17:27:50.996Z,101610.23
2019-02-11T17:30:55.033Z,101615.92
2019-02-11T17:33:59.104Z,101611.95
2019-02-11T17:37:04.231Z,101613.24
2019-02-11T17:40:17.432Z,101616.44
2019-02-11T17:43:24.016Z,101626.56
2019-02-11T17:46:28.072Z,101635.45
2019-02-11T17:49:32.109Z,101639.31
2019-02-11T17:52:36.169Z,101645.62
2019-02-11T17:55:40.205Z,101655.09
2019-02-11T17:58:44.273Z,101655.55
2019-02-11T18:01:48.331Z,101667.70
2019-02-11T18:04:52.367Z,101665.19
2019-02-11T18:07:56.425Z,101673.09
2019-02-11T18:11:00.465Z,101674.39
2019-02-11T18:14:04.522Z,101678.64
2019-02-11T18:17:08.585Z,101687.84
2019-02-11T18:20:12.625Z,101688.30
2019-02-11T18:23:16.689Z,101692.58
2019-02-11T18:26:20.730Z,101690.45
2019-02-11T18:29:24.793Z,101708.79
2019-02-11T18:32:28.849Z,101717.58
2019-02-11T18:35:32.885Z,101710.32
2019-02-11T18:38:36.951Z,101715.70
2019-02-11T18:41:40.986Z,101734.66
2019-02-11T18:44:45.046Z,101740.34
2019-02-11T18:47:50.505Z,101746.83
2019-02-11T18:50:54.794Z,101759.13
2019-02-11T18:53:58.853Z,101766.47
2019-02-11T18:57:03.363Z,101764.41
2019-02-11T19:00:11.333Z,101765.19
2019-02-11T19:03:15.388Z,101774.73
2019-02-11T19:06:19.492Z,101781.45
2019-02-11T19:09:23.550Z,101780.08
2019-02-11T19:12:27.586Z,101782.16
2019-02-11T19:15:31.647Z,101787.44
2019-02-11T19:18:35.705Z,101798.27
2019-02-11T19:21:39.762Z,101795.33
2019-02-11T19:24:43.823Z,101795.44
2019-02-11T19:27:47.877Z,101799.80
2019-02-11T19:30:51.920Z,101807.73
2019-02-11T19:33:55.980Z,101816.81
2019-02-11T19:37:00.017Z,101826.95
2019-02-11T19:40:06.425Z,101826.95
2019-02-11T19:43:10.482Z,101823.23
2019-02-11T19:46:14.529Z,101827.59
2019-02-11T19:49:18.577Z,101834.30
2019-02-11T19:52:22.615Z,101834.30
2019-02-11T19:55:26.729Z,101831.77
2019-02-11T19:58:30.734Z,101831.31
2019-02-11T20:01:34.765Z,101827.88
2019-02-11T20:04:38.824Z,101830.95
2019-02-11T20:07:42.858Z,101829.87
2019-02-11T20:10:47.022Z,101828.26
2019-02-11T20:13:51.049Z,101834.92
2019-02-11T20:16:55.085Z,101844.01
2019-02-11T20:20:00.633Z,101845.59
2019-02-11T20:23:04.861Z,101858.67
2019-02-11T20:26:08.916Z,101853.02
2019-02-11T20:29:12.993Z,101863.02
2019-02-11T20:32:17.023Z,101868.80
2019-02-11T20:35:21.082Z,101875.22
2019-02-11T20:38:25.140Z,101876.14
2019-02-11T20:41:29.181Z,101875.37
2019-02-11T20:44:33.240Z,101878.73
2019-02-11T20:47:37.272Z,101886.52
2019-02-11T20:50:41.337Z,101895.69
2019-02-11T20:53:45.392Z,101906.98
2019-02-11T20:56:49.458Z,101898.20
2019-02-11T20:59:53.487Z,101902.55
2019-02-11T21:02:57.527Z,101914.23
2019-02-11T21:06:01.580Z,101916.13
2019-02-11T21:09:05.880Z,101920.20
2019-02-11T21:12:09.912Z,101920.72
2019-02-11T21:15:15.522Z,101931.56
2019-02-11T21:18:19.563Z,101918.58
2019-02-11T21:21:23.625Z,101924.36
2019-02-11T21:24:27.689Z,101939.48
2019-02-11T21:27:31.720Z,101934.84
2019-02-11T21:30:35.784Z,101941.47
2019-02-11T21:33:39.809Z,101949.25
2019-02-11T21:36:43.864Z,101948.09
2019-02-11T21:39:47.950Z,101942.97
2019-02-11T21:42:51.962Z,101942.61
2019-02-11T21:45:56.022Z,101945.95
2019-02-11T21:49:00.056Z,101946.95
2019-02-11T21:52:04.116Z,101952.28
2019-02-11T21:55:11.014Z,101960.06
2019-02-11T21:58:15.044Z,101985.05
2019-02-11T22:01:19.106Z,101989.39
2019-02-11T22:04:23.160Z,101988.55
2019-02-11T22:07:27.199Z,101980.83
2019-02-11T22:10:31.284Z,101981.73
2019-02-11T22:13:35.309Z,101993.80
2019-02-11T22:16:39.373Z,101994.19
2019-02-11T22:19:43.431Z,101996.78
2019-02-11T22:22:47.465Z,101993.34
2019-02-11T22:25:51.526Z,101996.46
2019-02-11T22:28:55.563Z,102010.28
2019-02-11T22:31:59.618Z,102012.48
2019-02-11T22:35:04.921Z,102014.23
2019-02-11T22:38:09.016Z,102028.96
2019-02-11T22:41:13.073Z,102039.89
2019-02-11T22:44:17.109Z,102028.58
2019-02-11T22:47:21.170Z,102033.41
2019-02-11T22:50:25.225Z,102023.03
2019-02-11T22:53:29.265Z,102032.56
2019-02-11T22:56:33.320Z,102041.31
2019-02-11T22:59:37.381Z,102033.14
2019-02-11T23:02:41.420Z,102024.45
2019-02-11T23:05:45.561Z,102022.44
2019-02-11T23:08:49.596Z,102027.11
2019-02-11T23:11:53.652Z,102036.19
2019-02-11T23:14:57.709Z,102041.83
2019-02-11T23:18:01.743Z,102048.71
2019-02-11T23:21:05.797Z,102064.34
2019-02-11T23:24:09.834Z,102063.50
2019-02-11T23:27:13.890Z,102067.84
2019-02-11T23:30:17.945Z,102071.28
2019-02-11T23:33:21.981Z,102063.27
2019-02-11T23:36:26.041Z,102065.70
2019-02-11T23:39:30.079Z,102068.00
2019-02-11T23:42:34.136Z,102063.78
2019-02-11T23:45:38.193Z,102065.47
2019-02-11T23:48:42.229Z,102067.16
2019-02-11T23:51:46.290Z,102069.81
2019-02-11T23:54:50.349Z,102079.73
2019-02-11T23:57:54.386Z,102078.50
